createdAt,value
2019-02-20T00:00:04.975Z,26.63
2019-02-20T00:02:39.774Z,38.57
2019-02-20T00:05:09.568Z,29.07
2019-02-20T00:07:39.256Z,29.23
2019-02-20T00:10:10.413Z,19.07
2019-02-20T00:12:42.911Z,33.13
2019-02-20T00:15:15.110Z,29.90
2019-02-20T00:17:46.099Z,27.27
2019-02-20T00:20:17.782Z,30.97
2019-02-20T00:22:47.553Z,48.17
2019-02-20T00:25:17.546Z,32.60
2019-02-20T00:27:47.249Z,20.00
2019-02-20T00:30:18.275Z,19.17
2019-02-20T00:32:48.015Z,21.33
2019-02-20T00:35:22.294Z,38.77
2019-02-20T00:37:57.554Z,28.47
2019-02-20T00:40:27.321Z,34.40
2019-02-20T00:42:58.630Z,22.70
2019-02-20T00:45:54.471Z,24.83
2019-02-20T00:48:34.659Z,23.17
2019-02-20T00:51:24.770Z,32.83
2019-02-20T00:53:57.846Z,39.10
2019-02-20T00:56:28.838Z,29.27
2019-02-20T00:58:58.530Z,30.83
2019-02-20T01:01:28.372Z,28.83
2019-02-20T01:03:58.303Z,33.93
2019-02-20T01:06:29.508Z,29.50
2019-02-20T01:08:59.392Z,25.23
2019-02-20T01:11:29.300Z,29.07
2019-02-20T01:13:59.272Z,20.00
2019-02-20T01:16:29.124Z,44.17
2019-02-20T01:18:58.998Z,21.70
2019-02-20T01:21:29.771Z,36.70
2019-02-20T01:24:04.053Z,38.00
2019-02-20T01:26:34.036Z,31.70
2019-02-20T01:29:05.615Z,37.20
2019-02-20T01:31:37.141Z,24.50
2019-02-20T01:34:08.190Z,25.70
2019-02-20T01:36:37.918Z,26.97
2019-02-20T01:39:08.152Z,25.97
2019-02-20T01:41:38.020Z,28.13
2019-02-20T01:44:11.779Z,37.37
2019-02-20T01:46:41.491Z,47.60
2019-02-20T01:49:12.318Z,30.60
2019-02-20T01:51:42.154Z,38.10
2019-02-20T01:54:12.140Z,26.97
2019-02-20T01:56:41.994Z,34.47
2019-02-20T01:59:11.894Z,40.23
2019-02-20T02:01:41.815Z,36.13
2019-02-20T02:04:12.706Z,25.13
2019-02-20T02:06:42.488Z,27.57
2019-02-20T02:09:12.354Z,27.03
2019-02-20T02:11:42.170Z,32.03
2019-02-20T02:14:13.076Z,31.20
2019-02-20T02:16:48.202Z,43.43
2019-02-20T02:19:18.136Z,26.40
2019-02-20T02:21:47.932Z,34.10
2019-02-20T02:24:18.741Z,41.07
2019-02-20T02:26:48.544Z,26.43
2019-02-20T02:29:18.378Z,35.17
2019-02-20T02:31:48.322Z,25.43
2019-02-20T02:34:18.389Z,26.07
2019-02-20T02:36:53.210Z,35.17
2019-02-20T02:39:23.020Z,31.20
2019-02-20T02:41:52.793Z,28.37
2019-02-20T02:44:24.297Z,33.33
2019-02-20T02:46:53.998Z,31.73
2019-02-20T02:49:23.783Z,35.50
2019-02-20T02:51:53.755Z,48.00
2019-02-20T02:54:23.607Z,33.00
2019-02-20T02:56:53.499Z,29.13
2019-02-20T02:59:23.381Z,27.67
2019-02-20T03:01:55.038Z,39.53
2019-02-20T03:04:26.491Z,43.47
2019-02-20T03:06:56.386Z,40.63
2019-02-20T03:09:27.715Z,35.50
2019-02-20T03:11:57.532Z,23.60
2019-02-20T03:14:27.355Z,36.43
2019-02-20T03:16:57.334Z,30.60
2019-02-20T03:19:27.177Z,37.27
2019-02-20T03:21:57.167Z,39.17
2019-02-20T03:24:27.162Z,29.57
2019-02-20T03:26:56.956Z,27.30
2019-02-20T03:29:26.642Z,30.83
2019-02-20T03:31:56.903Z,29.53
2019-02-20T03:34:26.769Z,22.67
2019-02-20T03:36:56.538Z,33.23
2019-02-20T03:39:26.397Z,28.40
2019-02-20T03:41:56.341Z,25.47
2019-02-20T03:44:26.311Z,33.10
2019-02-20T03:46:57.296Z,30.33
2019-02-20T03:49:29.980Z,23.00
2019-02-20T03:51:59.759Z,31.77
2019-02-20T03:54:31.580Z,28.53
2019-02-20T03:57:01.374Z,26.70
2019-02-20T03:59:31.136Z,25.90
2019-02-20T04:02:00.911Z,38.00
2019-02-20T04:04:30.807Z,26.27
2019-02-20T04:07:00.833Z,34.03
2019-02-20T04:09:30.661Z,30.57
2019-02-20T04:12:00.519Z,30.63
2019-02-20T04:14:30.385Z,30.50
2019-02-20T04:17:00.318Z,49.20
2019-02-20T04:19:30.265Z,33.57
2019-02-20T04:22:00.114Z,28.70
2019-02-20T04:24:30.010Z,18.40
2019-02-20T04:26:59.946Z,44.73
2019-02-20T04:29:31.920Z,32.97
2019-02-20T04:32:01.793Z,17.60
2019-02-20T04:34:31.654Z,27.27
2019-02-20T04:37:01.411Z,26.63
2019-02-20T04:39:31.362Z,30.87
2019-02-20T04:42:01.137Z,28.33
2019-02-20T04:44:31.065Z,32.87
2019-02-20T04:47:00.909Z,20.00
2019-02-20T04:49:30.744Z,24.80
2019-02-20T04:52:00.662Z,26.67
2019-02-20T04:54:30.503Z,28.87
2019-02-20T04:57:00.267Z,30.10
2019-02-20T04:59:29.979Z,33.87
2019-02-20T05:02:00.958Z,33.37
2019-02-20T05:04:30.728Z,33.30
2019-02-20T05:07:02.283Z,21.40
2019-02-20T05:09:31.982Z,36.90
2019-02-20T05:12:13.248Z,31.67
2019-02-20T05:14:43.189Z,25.77
2019-02-20T05:17:12.915Z,23.83
2019-02-20T05:19:45.063Z,25.17
2019-02-20T05:22:20.176Z,36.57
2019-02-20T05:24:49.949Z,22.40
2019-02-20T05:27:19.787Z,31.03
2019-02-20T05:29:49.772Z,21.97
2019-02-20T05:32:19.576Z,23.63
2019-02-20T05:34:49.477Z,24.63
2019-02-20T05:37:19.382Z,39.60
2019-02-20T05:39:49.170Z,32.40
2019-02-20T05:42:19.017Z,24.77
2019-02-20T05:44:48.826Z,28.20
2019-02-20T05:47:24.664Z,29.83
2019-02-20T05:49:54.395Z,35.50
2019-02-20T05:52:24.183Z,23.20
2019-02-20T05:54:54.023Z,35.80
2019-02-20T05:57:23.821Z,26.97
2019-02-20T05:59:57.097Z,33.80
2019-02-20T06:02:27.011Z,30.73
2019-02-20T06:04:59.054Z,31.57
2019-02-20T06:07:29.883Z,25.37
2019-02-20T06:09:59.925Z,42.67
2019-02-20T06:12:34.331Z,28.23
2019-02-20T06:15:04.233Z,31.07
2019-02-20T06:17:38.108Z,26.60
2019-02-20T06:20:08.023Z,21.53
2019-02-20T06:22:37.732Z,33.93
2019-02-20T06:25:08.724Z,24.53
2019-02-20T06:27:43.910Z,15.93
2019-02-20T06:30:13.934Z,27.17
2019-02-20T06:32:43.811Z,32.33
2019-02-20T06:35:13.828Z,32.00
2019-02-20T06:37:43.518Z,24.53
2019-02-20T06:40:13.427Z,26.17
2019-02-20T06:42:43.222Z,27.70
2019-02-20T06:45:13.248Z,24.00
2019-02-20T06:47:42.966Z,24.47
2019-02-20T06:50:14.178Z,21.13
2019-02-20T06:52:44.051Z,27.90
2019-02-20T06:55:13.828Z,24.90
2019-02-20T06:57:44.472Z,26.77
2019-02-20T07:00:17.558Z,29.80
2019-02-20T07:02:48.918Z,26.83
2019-02-20T07:05:39.795Z,25.60
2019-02-20T07:08:46.514Z,29.60
2019-02-20T07:11:50.449Z,24.47
2019-02-20T07:14:44.461Z,25.03
2019-02-20T07:17:44.329Z,20.73
2019-02-20T07:20:45.456Z,36.07
2019-02-20T07:23:27.610Z,29.90
2019-02-20T07:26:29.899Z,26.23
2019-02-20T07:29:21.491Z,29.10
2019-02-20T07:31:51.267Z,26.30
2019-02-20T07:34:25.306Z,28.23
2019-02-20T07:36:57.207Z,27.37
2019-02-20T07:39:26.978Z,21.97
2019-02-20T07:42:01.771Z,32.90
2019-02-20T07:44:33.212Z,24.47
2019-02-20T07:47:04.251Z,26.10
2019-02-20T07:49:34.297Z,24.60
2019-02-20T07:52:04.086Z,19.23
2019-02-20T07:54:35.683Z,25.23
2019-02-20T07:57:07.240Z,22.93
2019-02-20T07:59:38.620Z,32.73
2019-02-20T08:02:08.442Z,24.53
2019-02-20T08:04:42.522Z,26.47
2019-02-20T08:07:14.055Z,24.57
2019-02-20T08:09:45.822Z,32.07
2019-02-20T08:12:18.925Z,18.90
2019-02-20T08:14:51.653Z,29.13
2019-02-20T08:17:21.363Z,18.60
2019-02-20T08:19:51.163Z,14.37
2019-02-20T08:22:20.870Z,18.40
2019-02-20T08:24:53.099Z,17.50
2019-02-20T08:27:28.194Z,21.70
2019-02-20T08:29:59.234Z,21.57
2019-02-20T08:32:29.046Z,16.10
2019-02-20T08:34:58.821Z,15.27
2019-02-20T08:37:28.636Z,16.70
2019-02-20T08:40:03.948Z,17.93
2019-02-20T08:42:36.422Z,21.53
2019-02-20T08:45:06.778Z,17.43
2019-02-20T08:47:40.218Z,18.73
2019-02-20T08:50:13.675Z,22.80
2019-02-20T08:52:43.462Z,22.43
2019-02-20T08:55:18.930Z,22.33
2019-02-20T08:57:50.045Z,14.50
2019-02-20T09:00:23.384Z,16.87
2019-02-20T09:02:53.175Z,16.63
2019-02-20T09:05:23.995Z,15.67
2019-02-20T09:07:53.774Z,32.43
2019-02-20T09:10:25.934Z,45.07
2019-02-20T09:12:55.711Z,14.43
2019-02-20T09:15:27.458Z,19.17
2019-02-20T09:17:57.282Z,16.77
2019-02-20T09:20:27.120Z,17.07
2019-02-20T09:22:56.910Z,22.40
2019-02-20T09:25:26.683Z,17.57
2019-02-20T09:27:56.796Z,17.10
2019-02-20T09:30:30.019Z,20.93
2019-02-20T09:33:00.030Z,31.40
2019-02-20T09:35:31.990Z,24.80
2019-02-20T09:38:02.823Z,21.23
2019-02-20T09:40:36.635Z,16.57
2019-02-20T09:43:09.947Z,27.43
2019-02-20T09:45:44.560Z,19.00
2019-02-20T09:48:15.787Z,20.93
2019-02-20T09:50:47.759Z,21.60
2019-02-20T09:53:18.922Z,26.47
2019-02-20T09:55:52.039Z,19.17
2019-02-20T09:58:21.930Z,22.77
2019-02-20T10:00:51.801Z,16.20
2019-02-20T10:03:21.699Z,21.90
2019-02-20T10:05:51.533Z,19.60
2019-02-20T10:08:21.260Z,12.07
2019-02-20T10:10:50.971Z,19.90
2019-02-20T10:13:20.816Z,18.30
2019-02-20T10:15:50.530Z,14.87
2019-02-20T10:18:20.371Z,18.13
2019-02-20T10:20:50.289Z,17.77
2019-02-20T10:23:20.151Z,11.27
2019-02-20T10:25:49.874Z,21.47
2019-02-20T10:28:19.608Z,19.33
2019-02-20T10:30:51.885Z,16.00
2019-02-20T10:33:22.484Z,15.77
2019-02-20T10:35:52.194Z,13.43
2019-02-20T10:38:21.949Z,16.00
2019-02-20T10:40:51.832Z,22.47
2019-02-20T10:43:21.956Z,13.37
2019-02-20T10:45:51.695Z,29.77
2019-02-20T10:48:21.485Z,13.90
2019-02-20T10:50:51.383Z,18.37
2019-02-20T10:53:21.665Z,12.83
2019-02-20T10:55:51.577Z,9.50
2019-02-20T10:58:21.722Z,15.23
2019-02-20T11:00:55.424Z,12.47
2019-02-20T11:03:25.122Z,13.30
2019-02-20T11:05:58.682Z,14.17
2019-02-20T11:08:30.468Z,16.07
2019-02-20T11:11:00.368Z,14.33
2019-02-20T11:13:30.105Z,20.73
2019-02-20T11:15:59.962Z,11.33
2019-02-20T11:18:29.742Z,17.03
2019-02-20T11:20:59.510Z,15.83
2019-02-20T11:23:29.289Z,9.30
2019-02-20T11:25:59.345Z,10.53
2019-02-20T11:28:33.311Z,23.03
2019-02-20T11:31:04.300Z,16.70
2019-02-20T11:33:35.249Z,12.60
2019-02-20T11:36:05.263Z,11.67
2019-02-20T11:38:35.159Z,14.83
2019-02-20T11:41:07.950Z,15.63
2019-02-20T11:43:39.450Z,14.67
2019-02-20T11:46:12.250Z,13.43
2019-02-20T11:48:43.746Z,14.97
2019-02-20T11:51:13.771Z,9.37
2019-02-20T11:53:43.544Z,14.77
2019-02-20T11:56:14.425Z,10.73
2019-02-20T11:58:44.155Z,13.30
2019-02-20T12:01:17.931Z,13.67
2019-02-20T12:03:47.767Z,9.57
2019-02-20T12:06:20.327Z,17.50
2019-02-20T12:08:50.055Z,12.93
2019-02-20T12:11:19.932Z,19.33
2019-02-20T12:13:49.830Z,14.30
2019-02-20T12:16:19.658Z,16.53
2019-02-20T12:18:49.503Z,10.87
2019-02-20T12:21:19.317Z,16.77
2019-02-20T12:23:49.189Z,18.20
2019-02-20T12:26:19.380Z,19.90
2019-02-20T12:28:49.343Z,17.63
2019-02-20T12:31:19.260Z,10.93
2019-02-20T12:33:54.007Z,12.83
2019-02-20T12:36:27.066Z,11.53
2019-02-20T12:38:58.119Z,13.50
2019-02-20T12:41:30.357Z,15.63
2019-02-20T12:44:05.190Z,15.13
2019-02-20T12:46:34.903Z,10.93
2019-02-20T12:49:07.825Z,12.93
2019-02-20T12:51:40.411Z,13.13
2019-02-20T12:54:10.137Z,12.27
2019-02-20T12:56:44.409Z,17.33
2019-02-20T12:59:19.326Z,18.33
2019-02-20T13:01:50.412Z,17.33
2019-02-20T13:04:20.187Z,13.40
2019-02-20T13:06:59.296Z,12.30
2019-02-20T13:09:27.275Z,13.00
2019-02-20T13:11:57.154Z,12.93
2019-02-20T13:14:27.062Z,20.73
2019-02-20T13:16:59.202Z,15.70
2019-02-20T13:19:28.902Z,20.63
2019-02-20T13:21:58.651Z,9.40
2019-02-20T13:24:30.155Z,16.40
2019-02-20T13:27:07.595Z,17.60
2019-02-20T13:29:34.212Z,9.97
2019-02-20T13:32:04.066Z,13.97
2019-02-20T13:34:36.621Z,12.40
2019-02-20T13:37:10.401Z,11.50
2019-02-20T13:39:40.256Z,13.10
2019-02-20T13:42:12.272Z,11.67
2019-02-20T13:44:42.181Z,11.50
2019-02-20T13:47:14.775Z,11.07
2019-02-20T13:49:44.631Z,7.40
2019-02-20T13:52:14.496Z,14.37
2019-02-20T13:54:51.257Z,16.23
2019-02-20T13:57:22.823Z,7.90
2019-02-20T13:59:55.637Z,11.73
2019-02-20T14:02:25.411Z,3.87
2019-02-20T14:04:56.150Z,10.07
2019-02-20T14:07:26.103Z,8.67
2019-02-20T14:09:56.120Z,10.10
2019-02-20T14:12:26.021Z,4.53
2019-02-20T14:14:56.147Z,20.90
2019-02-20T14:17:26.860Z,7.77
2019-02-20T14:19:56.985Z,5.47
2019-02-20T14:22:30.773Z,12.63
2019-02-20T14:25:02.679Z,8.93
2019-02-20T14:27:35.474Z,11.73
2019-02-20T14:30:05.661Z,5.57
2019-02-20T14:32:38.249Z,6.30
2019-02-20T14:35:08.203Z,7.87
2019-02-20T14:37:39.366Z,5.20
2019-02-20T14:40:11.915Z,10.40
2019-02-20T14:42:42.645Z,5.37
2019-02-20T14:45:16.260Z,2.97
2019-02-20T14:47:47.481Z,7.50
2019-02-20T14:50:17.372Z,11.67
2019-02-20T14:52:47.235Z,10.03
2019-02-20T14:55:17.149Z,5.83
2019-02-20T14:57:51.175Z,8.60
2019-02-20T15:00:21.054Z,4.97
2019-02-20T15:02:52.102Z,4.80
2019-02-20T15:05:22.376Z,16.97
2019-02-20T15:07:54.472Z,20.50
2019-02-20T15:10:25.038Z,7.07
2019-02-20T15:12:54.825Z,8.50
2019-02-20T15:15:31.042Z,7.13
2019-02-20T15:18:04.362Z,15.40
2019-02-20T15:20:35.510Z,16.13
2019-02-20T15:23:05.883Z,15.47
2019-02-20T15:25:36.658Z,13.53
2019-02-20T15:28:06.762Z,13.50
2019-02-20T15:30:37.080Z,15.70
2019-02-20T15:33:10.018Z,9.00
2019-02-20T15:35:39.911Z,5.73
2019-02-20T15:38:11.699Z,6.00
2019-02-20T15:40:43.075Z,10.83
2019-02-20T15:43:13.956Z,13.43
2019-02-20T15:45:43.951Z,8.67
2019-02-20T15:48:23.043Z,9.07
2019-02-20T15:50:47.857Z,5.80
2019-02-20T15:53:17.646Z,9.70
2019-02-20T15:55:47.462Z,10.43
2019-02-20T15:58:17.617Z,9.13
2019-02-20T16:00:53.953Z,6.13
2019-02-20T16:03:19.747Z,15.17
2019-02-20T16:05:49.503Z,8.03
2019-02-20T16:08:19.476Z,7.17
2019-02-20T16:10:52.356Z,6.40
2019-02-20T16:13:22.402Z,13.13
2019-02-20T16:15:52.285Z,11.53
2019-02-20T16:18:22.210Z,12.83
2019-02-20T16:20:53.307Z,16.37
2019-02-20T16:23:24.414Z,11.13
2019-02-20T16:25:55.751Z,14.50
2019-02-20T16:28:33.635Z,18.43
2019-02-20T16:30:58.630Z,7.77
2019-02-20T16:33:28.434Z,17.97
2019-02-20T16:36:01.069Z,19.53
2019-02-20T16:38:31.451Z,8.83
2019-02-20T16:41:04.548Z,7.87
2019-02-20T16:43:34.603Z,8.27
2019-02-20T16:46:08.002Z,8.37
2019-02-20T16:48:40.014Z,15.37
2019-02-20T16:51:11.004Z,18.53
2019-02-20T16:53:41.242Z,14.57
2019-02-20T16:56:11.175Z,9.70
2019-02-20T16:58:44.080Z,24.20
2019-02-20T17:01:26.259Z,10.90
2019-02-20T17:03:56.114Z,8.97
2019-02-20T17:06:26.198Z,7.13
2019-02-20T17:08:55.970Z,5.47
2019-02-20T17:11:25.814Z,12.07
2019-02-20T17:13:55.502Z,8.90
2019-02-20T17:16:27.706Z,9.17
2019-02-20T17:18:59.729Z,7.73
2019-02-20T17:21:29.424Z,9.73
2019-02-20T17:24:00.474Z,7.40
2019-02-20T17:26:33.461Z,14.20
2019-02-20T17:29:03.311Z,11.63
2019-02-20T17:31:34.642Z,7.93
2019-02-20T17:34:04.557Z,8.87
2019-02-20T17:36:35.518Z,8.37
2019-02-20T17:39:07.409Z,6.40
2019-02-20T17:41:39.012Z,7.23
2019-02-20T17:44:09.188Z,9.57
2019-02-20T17:46:41.492Z,9.97
2019-02-20T17:49:14.307Z,9.40
2019-02-20T17:51:44.998Z,10.63
2019-02-20T17:54:14.876Z,7.70
2019-02-20T17:56:44.762Z,8.47
2019-02-20T17:59:14.916Z,10.40
2019-02-20T18:01:45.566Z,7.40
2019-02-20T18:04:15.347Z,12.07
2019-02-20T18:06:46.794Z,5.87
2019-02-20T18:09:16.735Z,11.27
2019-02-20T18:11:46.555Z,6.43
2019-02-20T18:14:16.227Z,9.80
2019-02-20T18:16:45.987Z,9.20
2019-02-20T18:19:16.254Z,10.77
2019-02-20T18:21:46.127Z,12.47
2019-02-20T18:24:16.057Z,8.50
2019-02-20T18:26:45.832Z,13.47
2019-02-20T18:29:17.618Z,8.83
2019-02-20T18:31:50.316Z,11.27
2019-02-20T18:34:20.332Z,6.23
2019-02-20T18:36:50.183Z,9.40
2019-02-20T18:39:23.184Z,11.67
2019-02-20T18:41:59.886Z,7.03
2019-02-20T18:44:29.946Z,8.53
2019-02-20T18:46:59.745Z,8.27
2019-02-20T18:49:29.468Z,10.23
2019-02-20T18:52:02.210Z,9.27
2019-02-20T18:54:37.151Z,8.73
2019-02-20T18:57:07.145Z,13.77
2019-02-20T18:59:38.335Z,11.93
2019-02-20T19:02:10.950Z,7.70
2019-02-20T19:04:42.424Z,11.53
2019-02-20T19:07:13.673Z,9.13
2019-02-20T19:09:46.690Z,9.43
2019-02-20T19:12:48.383Z,8.63
2019-02-20T19:15:58.323Z,9.13
2019-02-20T19:19:13.393Z,17.13
2019-02-20T19:22:17.993Z,18.53
2019-02-20T19:25:13.202Z,12.00
2019-02-20T19:28:15.617Z,14.90
2019-02-20T19:31:12.094Z,12.00
2019-02-20T19:34:04.142Z,19.87
2019-02-20T19:36:55.564Z,12.40
2019-02-20T19:39:43.765Z,14.47
2019-02-20T19:43:11.563Z,19.67
2019-02-20T19:46:00.221Z,11.67
2019-02-20T19:49:10.783Z,17.63
2019-02-20T19:52:06.425Z,14.33
2019-02-20T19:55:10.231Z,13.47
2019-02-20T19:58:09.623Z,11.77
2019-02-20T20:00:59.534Z,17.90
2019-02-20T20:03:57.446Z,11.33
2019-02-20T20:07:02.804Z,24.97
2019-02-20T20:09:56.761Z,11.27
2019-02-20T20:13:00.899Z,15.87
2019-02-20T20:15:42.776Z,12.83
2019-02-20T20:19:05.591Z,12.17
2019-02-20T20:22:20.405Z,21.67
2019-02-20T20:25:15.928Z,19.70
2019-02-20T20:28:19.348Z,19.70
2019-02-20T20:31:26.077Z,16.40
2019-02-20T20:34:34.839Z,12.30
2019-02-20T20:37:46.235Z,26.97
2019-02-20T20:40:53.486Z,21.87
2019-02-20T20:43:58.502Z,17.87
2019-02-20T20:47:14.985Z,16.43
2019-02-20T20:50:21.103Z,23.87
2019-02-20T20:53:24.189Z,14.17
2019-02-20T20:56:23.789Z,14.20
2019-02-20T20:59:38.583Z,17.60
2019-02-20T21:02:33.359Z,14.53
2019-02-20T21:05:40.240Z,17.33
2019-02-20T21:08:56.154Z,18.27
2019-02-20T21:11:59.467Z,18.73
2019-02-20T21:14:39.009Z,14.33
2019-02-20T21:17:51.942Z,14.10
2019-02-20T21:21:05.938Z,18.90
2019-02-20T21:24:12.202Z,16.70
2019-02-20T21:27:30.903Z,18.40
2019-02-20T21:30:39.078Z,15.23
2019-02-20T21:34:11.578Z,20.00
2019-02-20T21:37:29.437Z,10.73
2019-02-20T21:40:33.599Z,12.97
2019-02-20T21:43:37.343Z,19.17
2019-02-20T21:46:26.744Z,18.70
2019-02-20T21:49:20.171Z,13.53
2019-02-20T21:52:25.045Z,12.03
2019-02-20T21:55:39.876Z,15.33
2019-02-20T21:58:23.319Z,17.57
2019-02-20T22:01:27.435Z,23.30
2019-02-20T22:04:22.111Z,13.07
2019-02-20T22:07:35.864Z,15.37
2019-02-20T22:10:32.934Z,20.97
2019-02-20T22:13:41.135Z,14.83
2019-02-20T22:16:48.708Z,18.23
2019-02-20T22:19:47.029Z,19.67
2019-02-20T22:22:50.770Z,22.77
2019-02-20T22:25:55.427Z,16.67
2019-02-20T22:29:03.958Z,29.80
2019-02-20T22:32:07.091Z,12.93
2019-02-20T22:35:14.794Z,18.63
2019-02-20T22:38:20.232Z,16.93
2019-02-20T22:41:05.278Z,21.93
2019-02-20T22:44:23.110Z,18.67
2019-02-20T22:47:36.968Z,30.07
2019-02-20T22:50:29.414Z,16.57
2019-02-20T22:53:10.915Z,19.13
2019-02-20T22:56:18.755Z,19.07
2019-02-20T22:59:24.871Z,18.33
2019-02-20T23:02:21.007Z,15.87
2019-02-20T23:05:14.463Z,19.27
2019-02-20T23:07:55.272Z,16.40
2019-02-20T23:10:57.322Z,21.07
2019-02-20T23:13:53.659Z,22.13
2019-02-20T23:16:26.285Z,18.27
2019-02-20T23:18:58.412Z,18.30
2019-02-20T23:21:29.726Z,25.50
2019-02-20T23:23:59.523Z,19.37
2019-02-20T23:26:30.776Z,24.77
2019-02-20T23:29:00.550Z,17.00
2019-02-20T23:31:30.599Z,14.50
2019-02-20T23:34:00.308Z,18.40
2019-02-20T23:36:31.366Z,23.00
2019-02-20T23:39:01.062Z,20.97
2019-02-20T23:41:35.532Z,18.53
2019-02-20T23:44:07.039Z,16.07
2019-02-20T23:46:36.730Z,18.70
2019-02-20T23:49:08.302Z,19.03
2019-02-20T23:51:38.215Z,22.93
2019-02-20T23:54:07.993Z,16.80
2019-02-20T23:56:40.575Z,19.03
2019-02-20T23:59:10.348Z,14.97
